首页
METAR-TAF:

METAR-TAF

机场 :

真纳国际机场

卡拉奇, 巴基斯坦

纬度: 24-54N, 经度: 067-08E, 海拔: 21米

当前天气观测

该预报发布于21分钟前的08:30 UTC
风速8节,风向西北
温度 32°C
湿度 36%
气压 1012 hPa
能見度: 6000
少量云层高于2000英尺

METAR: OPKC 010830Z 31008KT 6000 FEW020 32/15 Q1012 NOSIG

时间: 13:51 (08:51 UTC)

预报

该预报发布于5小时和21分钟前的03:30 UTC
预报有效从01日的 06点(UTC)到 02日的 12点(UTC)
风速8节,风向西,有时为18节阵风
能見度: 6000
成为
从 01日的 18点(UTC)到 01日的 20点(UTC)
风速10节,风向北转西北
能見度: 4000
从 02日的 0400点(UTC)
风速8节,风向西转西南,有时为18节阵风
能見度: 6000

TAF: OPKC 010330Z 0106/0212 27008G18KT 6000 NSC BECMG 0118/0120 34010KT 4000 FU NSC FM020400 24008G18KT 6000 NSC

超过4000个机场的气象观测和天气预报(METAR&TAF报告)。

可查询的气象台以黄色和红色小点在地图上表示。

将鼠标移到小点上方,可查看气象台名称。

然后点击查看天气观测和预报。

如需切换地图:点击带黑十字的绿色按钮放大地图;点击带横线的绿色按钮缩小地图;或者点击绿色箭头查看邻近地区的地图。


METAR-TAF: